Terminal Aerodrome Forecast
Issued by NWS Wilmington, OH

Current Version | Previous Version | Graphics & Text | Print | Product List | Glossary On
Versions: 1 2 3 4 5 6 7 8 9 10 11 12 13 14 15 16 17 18 19 20
000
FTUS41 KILN 160500
TAFCMH
TAF
KCMH 160535Z 1606/1706 15006KT P6SM BKN025 OVC040
     FM160800 17007KT P6SM VCSH BKN015 OVC025
     FM161300 19011KT 5SM BR VCSH OVC012
     FM161600 22012G18KT 5SM BR OVC012
     FM161800 24014G22KT P6SM OVC015=

USA.gov is the U.S. government's official web portal to all federal, state and local government web resources and services.